Latest Coastal Weather Observations for Kiama

IDN60701

Issued at 6:55 pm EDT Saturday 25 October 2014 (issued every 10 minutes, with the page automatically refreshed every 10 minutes)

About coastal observations | Map of coastal stations | Coastal observations for NSW | Marine services | Other Formats
Station Details ID: 068242 Name: KIAMA (BOMBO HEADLAND) Lat: -34.65 Lon: 150.86 Height: 15.5 m
Data from the previous 72 hours. | See also: Recent months at Kiama
Date/Time
EDT
Temp

°C
Wind Pressure Rain
since 9am
mm
Weather Cloud Vis
km
Sea
Height
m
Swell
Dir
 
Speed
knots
Gust
knots
hPa Trend Height
m
Period
s
Dir
25/06:30pm 18.5 S 21 26 - - 0.0 - - - - - - -
25/06:00pm 18.9 S 16 20 - - 0.0 - - - - - - -
25/05:30pm 18.8 S 16 21 - - 0.0 - - - - - - -
25/05:00pm 18.9 S 16 22 - - 0.0 - - - - - - -
25/04:30pm 19.2 S 15 20 - - 0.0 - - - - - - -
25/04:00pm 19.2 S 18 24 - - 0.0 - - - - - - -
25/03:30pm 19.3 S 18 24 - - 0.0 - - - - - - -
25/03:00pm 19.3 S 18 23 - - 0.0 - - - - - - -
25/02:30pm 19.4 S 19 25 - - 0.0 - - - - - - -
25/02:00pm 19.4 S 20 25 - - 0.0 - - - - - - -
25/01:30pm 19.4 S 21 27 - - 0.0 - - - - - - -
25/01:00pm 19.7 S 23 29 - - 0.0 - - - - - - -
25/12:30pm 20.3 S 21 27 - - 0.0 - - - - - - -
25/12:00pm 20.5 S 21 27 - - 0.0 - - - - - - -
25/11:30am 21.6 S 18 23 - - 0.0 - - - - - - -
25/11:00am 21.1 SSE 18 23 - - 0.0 - - - - - - -
25/10:30am 21.4 SSE 13 19 - - 0.0 - - - - - - -
25/10:00am 21.6 SSE 11 14 - - 0.0 - - - - - - -
25/09:30am 23.6 SSE 6 10 - - 0.0 - - - - - - -
25/08:30am 23.5 SW 9 14 - - 0.4 - - - - - - -
25/08:00am 19.6 N 5 7 - - 0.4 - - - - - - -
25/07:30am 18.9 NE 3 4 - - 0.4 - - - - - - -
25/07:00am 18.4 E 1 3 - - 0.4 - - - - - - -
25/06:30am 17.9 NW 2 4 - - 0.4 - - - - - - -
25/06:00am 18.3 CALM 0 0 - - 0.4 - - - - - - -
25/05:30am 18.4 CALM 0 0 - - 0.4 - - - - - - -
25/05:00am 18.7 N 2 3 - - 0.4 - - - - - - -
25/04:30am 19.0 N 5 7 - - 0.4 - - - - - - -
25/04:00am 19.1 N 3 5 - - 0.4 - - - - - - -
25/03:30am 19.3 N 5 8 - - 0.4 - - - - - - -
25/03:00am 19.5 NNE 6 9 - - 0.4 - - - - - - -
25/02:30am 19.6 N 4 6 - - 0.4 - - - - - - -
25/02:00am 19.7 N 7 9 - - 0.4 - - - - - - -
25/01:30am 19.8 N 8 11 - - 0.4 - - - - - - -
25/01:00am 19.9 N 9 12 - - 0.4 - - - - - - -
25/12:30am 20.0 N 8 14 - - 0.4 - - - - - - -
25/12:00am 19.9 N 7 12 - - 0.4 - - - - - - -
 
Date/Time
EDT
Temp

°C
Wind Pressure Rain
since 9am
mm
Weather Cloud Vis
km
Sea
Height
m
Swell
Dir
 
Speed
knots
Gust
knots
hPa Trend Height
m
Period
s
Dir
24/11:30pm 19.9 N 11 17 - - 0.4 - - - - - - -
24/11:00pm 19.5 NW 7 10 - - 0.4 - - - - - - -
24/10:30pm 19.4 NE 11 15 - - 0.4 - - - - - - -
24/10:00pm 19.7 SE 8 9 - - 0.2 - - - - - - -
24/09:30pm 19.5 N 4 7 - - 0.2 - - - - - - -
24/09:00pm 19.6 NNE 7 10 - - 0.2 - - - - - - -
24/08:30pm 19.8 N 9 15 - - 0.2 - - - - - - -
24/08:00pm 19.7 N 13 17 - - 0.2 - - - - - - -
24/07:30pm 19.6 N 10 14 - - 0.2 - - - - - - -
24/07:00pm 19.7 N 10 13 - - 0.2 - - - - - - -
24/06:30pm 20.0 N 11 16 - - 0.2 - - - - - - -
24/06:00pm 20.2 N 12 17 - - 0.2 - - - - - - -
24/05:30pm 20.0 N 11 16 - - 0.2 - - - - - - -
24/05:00pm 20.5 N 13 17 - - 0.2 - - - - - - -
24/04:30pm 20.7 N 13 18 - - 0.2 - - - - - - -
24/04:00pm 20.7 N 14 21 - - 0.2 - - - - - - -
24/03:30pm 20.9 N 15 19 - - 0.2 - - - - - - -
24/03:00pm 21.0 N 14 22 - - 0.2 - - - - - - -
24/02:30pm 21.4 N 14 20 - - 0.2 - - - - - - -
24/02:00pm 21.2 NNE 13 18 - - 0.2 - - - - - - -
24/01:30pm 21.2 NNE 14 18 - - 0.2 - - - - - - -
24/01:00pm 21.1 NNE 16 20 - - 0.2 - - - - - - -
24/12:30pm 21.3 NNE 13 17 - - 0.2 - - - - - - -
24/12:00pm 21.3 NNE 13 18 - - 0.2 Recent precip. - - - - - -
24/11:30am 22.0 NNE 10 14 - - 0.2 - - - - - - -
24/11:00am 20.9 NNE 12 16 - - 0.0 - - - - - - -
24/10:30am 21.1 NNE 8 12 - - 0.0 - - - - - - -
24/10:00am 19.9 NNE 9 12 - - 0.0 - - - - - - -
24/09:30am 19.9 NNE 6 8 - - 0.0 - - - - - - -
24/09:00am 20.0 ESE 3 6 - - 0.6 - - - - - - -
24/08:30am 19.7 N 5 7 - - 0.6 - - - - - - -
24/08:00am 18.9 NNW 5 8 - - 0.6 - - - - - - -
24/07:30am 18.2 NNW 4 6 - - 0.6 - - - - - - -
24/07:00am 17.9 NW 9 16 - - 0.6 - - - - - - -
24/06:30am 17.8 N 8 11 - - 0.6 - - - - - - -
24/06:00am 17.6 NNW 8 10 - - 0.6 - - - - - - -
24/05:30am 17.5 N 7 10 - - 0.6 - - - - - - -
24/05:00am 17.8 NNW 1 3 - - 0.6 - - - - - - -
24/04:30am 17.9 W 3 5 - - 0.6 - - - - - - -
24/04:00am 18.2 SE 5 6 - - 0.6 - - - - - - -
24/03:30am 18.6 S 3 11 - - 0.0 - - - - - - -
24/03:00am 18.2 WNW 8 11 - - 0.0 - - - - - - -
24/02:30am 18.2 NW 7 9 - - 0.0 - - - - - - -
24/02:00am 18.3 NNW 4 6 - - 0.0 - - - - - - -
24/01:30am 18.5 ENE 1 4 - - 0.0 - - - - - - -
24/01:00am 18.7 NNW 3 6 - - 0.0 - - - - - - -
24/12:30am 19.1 S 8 11 - - 0.0 - - - - - - -
24/12:00am 19.1 SSW 10 13 - - 0.0 - - - - - - -
 
Date/Time
EDT
Temp

°C
Wind Pressure Rain
since 9am
mm
Weather Cloud Vis
km
Sea
Height
m
Swell
Dir
 
Speed
knots
Gust
knots
hPa Trend Height
m
Period
s
Dir
23/11:30pm 19.1 S 7 9 - - 0.0 - - - - - - -
23/11:00pm 19.1 S 7 9 - - 0.0 - - - - - - -
23/10:30pm 19.1 S 6 8 - - 0.0 - - - - - - -
23/10:00pm 18.8 SSE 4 5 - - 0.0 - - - - - - -
23/09:30pm 18.6 S 4 6 - - 0.0 - - - - - - -
23/09:00pm 18.6 SSW 1 3 - - 0.0 - - - - - - -
23/08:30pm 18.8 CALM 0 0 - - 0.0 - - - - - - -
23/08:00pm 18.9 N 1 2 - - 0.0 - - - - - - -
23/07:30pm 19.4 CALM 0 0 - - 0.0 - - - - - - -
23/07:00pm 19.8 ENE 1 3 - - 0.0 - - - - - - -
23/06:30pm 20.3 CALM 0 0 - - 0.0 - - - - - - -
23/06:00pm 20.4 ESE 3 4 - - 0.0 - - - - - - -
23/05:30pm 20.9 SE 3 4 - - 0.0 - - - - - - -
23/05:00pm 21.1 E 2 3 - - 0.0 - - - - - - -
23/04:30pm 21.6 ESE 3 4 - - 0.0 - - - - - - -
23/04:00pm 21.4 SSE 5 6 - - 0.0 - - - - - - -
23/03:30pm 21.4 SSE 6 7 - - 0.0 - - - - - - -
23/03:00pm 21.2 SSE 7 8 - - 0.0 - - - - - - -
23/02:30pm 21.4 S 8 11 - - 0.0 - - - - - - -
23/02:00pm 21.9 S 5 7 - - 0.0 - - - - - - -
23/01:30pm 21.1 SSE 4 5 - - 0.0 - - - - - - -
23/01:00pm 21.0 S 3 4 - - 0.0 - - - - - - -
23/12:30pm 21.0 SE 3 4 - - 0.0 - - - - - - -
23/12:00pm 20.8 ESE 2 4 - - 0.0 - - - - - - -
23/11:30am 20.1 SE 4 5 - - 0.0 - - - - - - -
23/11:00am 19.5 SSE 4 5 - - 0.0 - - - - - - -
23/10:30am 19.1 SSE 7 8 - - 0.0 - - - - - - -
23/10:00am 19.6 SE 4 6 - - 0.0 - - - - - - -
23/09:30am 19.0 SSE 2 3 - - 0.0 - - - - - - -
23/09:00am 18.6 SSE 4 5 - - 0.0 - - - - - - -
23/08:30am 18.6 CALM 0 0 - - 0.0 - - - - - - -
23/08:00am 18.2 CALM 0 0 - - 0.0 - - - - - - -
23/07:30am 17.0 CALM 0 1 - - 0.0 - - - - - - -
23/07:00am 16.3 WSW 1 2 - - 0.0 - - - - - - -
23/06:30am 15.1 CALM 0 0 - - 0.0 - - - - - - -
23/06:00am 15.2 W 3 5 - - 0.0 - - - - - - -
23/05:30am 14.9 W 5 6 - - 0.0 - - - - - - -
23/05:00am 15.0 W 5 6 - - 0.0 - - - - - - -
23/04:30am 15.2 W 5 5 - - 0.0 - - - - - - -
23/04:00am 15.0 WNW 3 4 - - 0.0 - - - - - - -
23/03:30am 15.4 NW 3 5 - - 0.0 - - - - - - -
23/03:00am 15.5 NW 4 5 - - 0.0 - - - - - - -
23/02:30am 15.2 NW 5 6 - - 0.0 - - - - - - -
23/02:00am 14.9 NW 4 6 - - 0.0 - - - - - - -
23/01:30am 15.0 NW 4 6 - - 0.0 - - - - - - -
23/01:00am 15.1 NW 5 7 - - 0.0 - - - - - - -
23/12:30am 15.5 NW 5 7 - - 0.0 - - - - - - -
23/12:00am 15.8 NNW 4 7 - - 0.0 - - - - - - -
 
Date/Time
EDT
Temp

°C
Wind Pressure Rain
since 9am
mm
Weather Cloud Vis
km
Sea
Height
m
Swell
Dir
 
Speed
knots
Gust
knots
hPa Trend Height
m
Period
s
Dir
22/11:30pm 15.9 NNW 4 6 - - 0.0 - - - - - - -
22/11:00pm 16.0 NNW 4 7 - - 0.0 - - - - - - -
22/10:30pm 16.1 NW 5 6 - - 0.0 - - - - - - -
22/10:00pm 17.1 NNW 5 10 - - 0.0 - - - - - - -
22/09:30pm 17.6 N 6 12 - - 0.0 - - - - - - -
22/09:00pm 18.1 N 13 18 - - 0.0 - - - - - - -
22/08:30pm 18.0 N 13 18 - - 0.0 - - - - - - -
22/08:00pm 18.1 N 14 20 - - 0.0 - - - - - - -
22/07:30pm 18.1 N 13 19 - - 0.0 - - - - - - -
22/07:00pm 18.3 N 15 21 - - 0.0 - - - - - - -

Other Formats:

Comma delimited format used in spreadsheet applications
http://www.bom.gov.au/fwo/IDN60701/IDN60701.95749.axf

JavaScript Object Notation format (JSON) in row-major order
http://www.bom.gov.au/fwo/IDN60701/IDN60701.95749.json